createdAt,value
2022-09-28T00:01:41.343Z,93.86
2022-09-28T00:05:27.058Z,91.97
2022-09-28T00:09:09.879Z,89.48
2022-09-28T00:12:55.548Z,88.97
2022-09-28T00:16:40.109Z,89.75
2022-09-28T00:20:22.951Z,89.10
2022-09-28T00:24:15.931Z,87.95
2022-09-28T00:27:58.634Z,87.81
2022-09-28T00:31:41.405Z,86.40
2022-09-28T00:35:24.143Z,87.24
2022-09-28T00:39:09.736Z,85.94
2022-09-28T00:42:52.449Z,85.71
2022-09-28T00:46:35.972Z,85.60
2022-09-28T00:50:23.283Z,85.39
2022-09-28T00:54:12.052Z,84.82
2022-09-28T00:57:59.266Z,83.59
2022-09-28T01:01:42.347Z,83.46
2022-09-28T01:05:25.815Z,83.30
2022-09-28T01:09:11.171Z,83.55
2022-09-28T01:12:53.962Z,83.01
2022-09-28T01:16:43.061Z,82.47
2022-09-28T01:20:42.103Z,82.18
2022-09-28T01:24:41.480Z,81.92
2022-09-28T01:28:28.452Z,82.37
2022-09-28T01:32:16.497Z,82.80
2022-09-28T01:36:03.331Z,83.27
2022-09-28T01:39:49.479Z,82.41
2022-09-28T01:43:37.196Z,82.01
2022-09-28T01:47:22.078Z,81.88
2022-09-28T01:51:16.018Z,80.99
2022-09-28T01:55:02.249Z,79.96
2022-09-28T01:58:50.322Z,80.34
2022-09-28T02:02:35.295Z,80.21
2022-09-28T02:06:23.177Z,80.09
2022-09-28T02:10:10.422Z,79.60
2022-09-28T02:13:57.673Z,78.66
2022-09-28T02:17:40.616Z,79.82
2022-09-28T02:21:26.932Z,79.48
2022-09-28T02:25:14.537Z,80.13
2022-09-28T02:28:59.305Z,80.09
2022-09-28T02:32:43.562Z,80.45
2022-09-28T02:36:26.949Z,80.09
2022-09-28T02:40:16.522Z,79.97
2022-09-28T02:44:07.097Z,79.20
2022-09-28T02:48:01.475Z,78.74
2022-09-28T02:51:51.295Z,77.58
2022-09-28T02:55:44.652Z,77.28
2022-09-28T02:59:47.844Z,76.80
2022-09-28T03:03:35.465Z,76.91
2022-09-28T03:07:25.551Z,76.40
2022-09-28T03:11:11.348Z,76.84
2022-09-28T03:15:09.337Z,77.60
2022-09-28T03:18:52.024Z,78.07
2022-09-28T03:22:34.773Z,78.45
2022-09-28T03:26:18.048Z,78.73
2022-09-28T03:30:01.053Z,79.26
2022-09-28T03:33:45.144Z,80.00
2022-09-28T03:37:27.917Z,80.76
2022-09-28T03:41:12.470Z,81.34
2022-09-28T03:44:55.381Z,81.94
2022-09-28T03:48:38.066Z,82.45
2022-09-28T03:52:22.079Z,83.08
2022-09-28T03:56:06.551Z,83.30
2022-09-28T03:59:51.962Z,83.14
2022-09-28T04:03:34.940Z,82.67
2022-09-28T04:07:17.595Z,82.90
2022-09-28T04:11:02.545Z,82.75
2022-09-28T04:14:45.262Z,82.08
2022-09-28T04:18:28.077Z,82.28
2022-09-28T04:22:10.766Z,81.83
2022-09-28T04:25:53.540Z,81.90
2022-09-28T04:29:37.804Z,82.05
2022-09-28T04:33:20.575Z,81.67
2022-09-28T04:37:05.055Z,82.19
2022-09-28T04:40:50.138Z,82.79
2022-09-28T04:44:32.901Z,82.64
2022-09-28T04:48:17.384Z,83.12
2022-09-28T04:52:00.091Z,83.27
2022-09-28T04:55:43.273Z,82.36
2022-09-28T04:59:26.005Z,79.88
2022-09-28T05:03:08.676Z,80.83
2022-09-28T05:06:52.710Z,80.98
2022-09-28T05:10:35.570Z,82.24
2022-09-28T05:14:18.276Z,81.78
2022-09-28T05:18:01.751Z,82.26
2022-09-28T05:21:45.991Z,82.23
2022-09-28T05:25:30.070Z,82.43
2022-09-28T05:29:12.824Z,84.18
2022-09-28T05:32:55.551Z,84.36
2022-09-28T05:36:39.146Z,86.60
2022-09-28T05:40:22.108Z,86.93
2022-09-28T05:44:06.258Z,87.88
2022-09-28T05:47:48.922Z,87.00
2022-09-28T05:51:31.608Z,86.64
2022-09-28T05:55:16.998Z,86.45
2022-09-28T05:58:59.882Z,86.90
2022-09-28T06:02:43.950Z,88.39
2022-09-28T06:06:26.739Z,90.00
2022-09-28T06:10:10.061Z,91.08
2022-09-28T06:13:54.697Z,90.93
2022-09-28T06:17:37.412Z,92.92
2022-09-28T06:21:21.542Z,93.23
2022-09-28T06:25:05.484Z,92.60
2022-09-28T06:28:48.212Z,93.41
2022-09-28T06:32:30.911Z,93.78
2022-09-28T06:36:13.691Z,93.53
2022-09-28T06:39:57.823Z,94.19
2022-09-28T06:43:40.587Z,100.00
2022-09-28T06:47:23.234Z,79.64
2022-09-28T06:51:07.110Z,69.71
2022-09-28T06:54:49.764Z,67.33
2022-09-28T06:58:33.815Z,69.10
2022-09-28T07:02:16.684Z,72.80
2022-09-28T07:05:59.418Z,75.06
2022-09-28T07:09:46.522Z,77.34
2022-09-28T07:13:49.538Z,78.95
2022-09-28T07:17:38.177Z,80.74
2022-09-28T07:21:29.603Z,80.53
2022-09-28T07:25:14.224Z,82.11
2022-09-28T07:28:58.313Z,80.96
2022-09-28T07:32:41.126Z,82.27
2022-09-28T07:36:23.854Z,83.78
2022-09-28T07:40:25.471Z,84.01
2022-09-28T07:44:09.827Z,84.73
2022-09-28T07:47:58.648Z,84.21
2022-09-28T07:51:43.550Z,83.71
2022-09-28T07:55:26.429Z,77.46
2022-09-28T07:59:10.615Z,76.37
2022-09-28T08:02:53.329Z,78.55
2022-09-28T08:06:36.060Z,80.73
2022-09-28T08:10:19.483Z,80.85
2022-09-28T08:14:02.276Z,82.65
2022-09-28T08:17:49.207Z,82.55
2022-09-28T08:21:47.289Z,84.12
2022-09-28T08:25:29.942Z,84.17
2022-09-28T08:29:12.621Z,84.78
2022-09-28T08:32:56.717Z,86.01
2022-09-28T08:36:39.516Z,86.91
2022-09-28T08:40:24.757Z,86.74
2022-09-28T08:44:23.683Z,87.71
2022-09-28T08:48:31.259Z,87.02
2022-09-28T08:52:17.922Z,87.14
2022-09-28T08:56:03.900Z,87.04
2022-09-28T08:59:53.331Z,87.40
2022-09-28T09:03:39.746Z,87.76
2022-09-28T09:07:40.448Z,88.62
2022-09-28T09:11:32.153Z,90.88
2022-09-28T09:15:22.759Z,90.05
2022-09-28T09:19:16.976Z,89.93
2022-09-28T09:23:00.916Z,93.96
2022-09-28T09:27:21.923Z,96.19
2022-09-28T09:31:09.831Z,97.47
2022-09-28T09:35:14.556Z,98.47
2022-09-28T09:39:08.357Z,100.00
2022-09-28T09:43:01.127Z,100.00
2022-09-28T09:46:47.240Z,99.88
2022-09-28T09:50:35.236Z,99.21
2022-09-28T09:54:22.468Z,99.07
2022-09-28T09:58:10.241Z,100.00
2022-09-28T10:01:53.466Z,100.00
2022-09-28T10:05:38.071Z,100.00
2022-09-28T10:09:24.918Z,100.00
2022-09-28T10:13:07.784Z,97.51
2022-09-28T10:16:52.567Z,94.87
2022-09-28T10:20:38.585Z,93.65
2022-09-28T10:24:29.424Z,94.27
2022-09-28T10:28:20.139Z,95.60
2022-09-28T10:32:03.237Z,95.20
2022-09-28T10:35:47.873Z,94.28
2022-09-28T10:39:33.519Z,95.43
2022-09-28T10:43:21.835Z,93.28
2022-09-28T10:47:07.954Z,91.38
2022-09-28T10:51:04.852Z,91.71
2022-09-28T10:54:55.910Z,89.12
2022-09-28T10:58:40.502Z,89.45
2022-09-28T11:02:26.864Z,88.66
2022-09-28T11:06:11.093Z,88.16
2022-09-28T11:09:55.049Z,87.90
2022-09-28T11:13:48.266Z,87.13
2022-09-28T11:17:32.914Z,84.13
2022-09-28T11:21:18.740Z,86.45
2022-09-28T11:25:21.180Z,86.54
2022-09-28T11:29:04.009Z,87.83
2022-09-28T11:32:46.770Z,87.09
2022-09-28T11:36:48.750Z,83.90
2022-09-28T11:40:43.303Z,86.04
2022-09-28T11:44:38.323Z,84.66
2022-09-28T11:48:24.714Z,85.91
2022-09-28T11:52:14.759Z,83.92
2022-09-28T11:56:03.299Z,82.54
2022-09-28T11:59:56.355Z,84.25
2022-09-28T12:03:43.225Z,84.00
2022-09-28T12:07:33.674Z,83.21
2022-09-28T12:11:19.176Z,84.59
2022-09-28T12:15:06.068Z,83.87
2022-09-28T12:18:51.868Z,86.93
2022-09-28T12:22:40.689Z,88.92
2022-09-28T12:26:29.382Z,90.42
2022-09-28T12:30:19.246Z,87.64
2022-09-28T12:34:02.657Z,88.10
2022-09-28T12:38:00.416Z,87.70
2022-09-28T12:41:51.636Z,88.33
2022-09-28T12:46:11.978Z,89.60
2022-09-28T12:50:38.044Z,91.11
2022-09-28T12:54:26.197Z,88.49
2022-09-28T12:58:22.961Z,86.56
2022-09-28T13:02:31.558Z,86.68
2022-09-28T13:06:33.928Z,89.39
2022-09-28T13:10:26.131Z,89.65
2022-09-28T13:14:23.807Z,90.58
2022-09-28T13:18:12.065Z,85.10
2022-09-28T13:22:00.415Z,80.44
2022-09-28T13:25:50.989Z,83.62
2022-09-28T13:29:34.996Z,85.24
2022-09-28T13:33:23.870Z,81.87
2022-09-28T13:37:20.880Z,82.46
2022-09-28T13:41:18.955Z,80.93
2022-09-28T13:45:24.817Z,80.68
2022-09-28T13:49:12.316Z,85.19
2022-09-28T13:53:03.858Z,85.96
2022-09-28T13:56:53.664Z,86.53
2022-09-28T14:00:43.344Z,83.98
2022-09-28T14:04:28.394Z,82.30
2022-09-28T14:08:29.064Z,82.28
2022-09-28T14:12:45.835Z,82.72
2022-09-28T14:16:31.088Z,81.05
2022-09-28T14:20:16.211Z,79.01
2022-09-28T14:24:09.439Z,80.59
2022-09-28T14:28:03.276Z,81.24
2022-09-28T14:31:45.945Z,82.00
2022-09-28T14:35:32.309Z,82.47
2022-09-28T14:39:37.316Z,81.80
2022-09-28T14:43:28.118Z,83.44
2022-09-28T14:47:26.515Z,82.57
2022-09-28T14:51:42.361Z,81.03
2022-09-28T14:55:28.881Z,80.23
2022-09-28T14:59:15.775Z,80.78
2022-09-28T15:03:01.614Z,80.41
2022-09-28T15:06:48.751Z,81.15
2022-09-28T15:10:33.051Z,81.20
2022-09-28T15:14:17.955Z,81.90
2022-09-28T15:18:08.587Z,81.42
2022-09-28T15:21:51.666Z,81.74
2022-09-28T15:25:35.866Z,82.56
2022-09-28T15:29:21.042Z,83.85
2022-09-28T15:33:19.145Z,85.03
2022-09-28T15:37:06.434Z,84.90
2022-09-28T15:40:50.278Z,85.56
2022-09-28T15:44:37.062Z,84.89
2022-09-28T15:48:23.060Z,85.73
2022-09-28T15:52:06.112Z,84.75
2022-09-28T15:55:51.294Z,85.24
2022-09-28T15:59:36.993Z,86.37
2022-09-28T16:03:24.875Z,86.65
2022-09-28T16:07:21.718Z,86.69
2022-09-28T16:11:12.095Z,87.29
2022-09-28T16:14:56.921Z,86.75
2022-09-28T16:18:40.220Z,86.48
2022-09-28T16:22:28.112Z,86.92
2022-09-28T16:26:16.631Z,87.95
2022-09-28T16:30:17.372Z,89.21
2022-09-28T16:34:02.291Z,87.50
2022-09-28T16:37:45.361Z,87.02
2022-09-28T16:41:28.922Z,88.70
2022-09-28T16:45:20.324Z,88.58
2022-09-28T16:49:03.563Z,91.88
2022-09-28T16:53:03.720Z,92.18
2022-09-28T16:56:46.450Z,94.91
2022-09-28T17:00:30.479Z,82.68
2022-09-28T17:04:13.137Z,82.12
2022-09-28T17:08:01.016Z,80.50
2022-09-28T17:11:44.405Z,82.38
2022-09-28T17:15:27.123Z,83.20
2022-09-28T17:19:19.547Z,84.85
2022-09-28T17:23:02.468Z,85.43
2022-09-28T17:26:46.095Z,85.58
2022-09-28T17:30:28.842Z,86.93
2022-09-28T17:34:12.607Z,88.59
2022-09-28T17:37:56.752Z,87.93
2022-09-28T17:41:39.739Z,87.81
2022-09-28T17:45:22.737Z,87.65
2022-09-28T17:49:07.265Z,88.09
2022-09-28T17:52:52.313Z,89.05
2022-09-28T17:56:36.918Z,89.13
2022-09-28T18:00:19.933Z,90.08
2022-09-28T18:04:03.284Z,91.00
2022-09-28T18:07:47.762Z,93.52
2022-09-28T18:11:30.956Z,87.29
2022-09-28T18:15:16.098Z,85.74
2022-09-28T18:18:59.349Z,87.43
2022-09-28T18:22:42.084Z,89.75
2022-09-28T18:26:24.780Z,90.70
2022-09-28T18:30:08.551Z,90.51
2022-09-28T18:33:59.099Z,89.26
2022-09-28T18:37:42.902Z,88.40
2022-09-28T18:41:25.663Z,88.00
2022-09-28T18:45:11.180Z,89.36
2022-09-28T18:48:55.246Z,89.41
2022-09-28T18:52:38.003Z,89.48
2022-09-28T18:56:20.967Z,87.74
2022-09-28T19:00:06.816Z,87.90
2022-09-28T19:03:52.316Z,88.40
2022-09-28T19:07:36.495Z,89.17
2022-09-28T19:11:19.340Z,88.06
2022-09-28T19:15:02.048Z,89.01
2022-09-28T19:18:45.008Z,90.58
2022-09-28T19:22:28.343Z,91.05
2022-09-28T19:26:14.167Z,89.61
2022-09-28T19:29:56.809Z,90.33
2022-09-28T19:33:40.527Z,93.34
2022-09-28T19:37:23.238Z,93.94
2022-09-28T19:41:09.667Z,95.36
2022-09-28T19:44:53.901Z,93.62
2022-09-28T19:48:36.726Z,93.45
2022-09-28T19:52:19.423Z,94.10
2022-09-28T19:56:03.790Z,93.11
2022-09-28T19:59:52.548Z,93.02
2022-09-28T20:03:38.580Z,94.81
2022-09-28T20:07:21.771Z,95.70
2022-09-28T20:11:05.479Z,96.72
2022-09-28T20:14:48.140Z,95.31
2022-09-28T20:18:34.691Z,94.70
2022-09-28T20:22:19.792Z,93.49
2022-09-28T20:26:02.517Z,92.49
2022-09-28T20:29:45.192Z,91.46
2022-09-28T20:33:29.045Z,90.57
2022-09-28T20:37:13.667Z,90.06
2022-09-28T20:41:00.670Z,89.30
2022-09-28T20:44:43.418Z,97.90
2022-09-28T20:48:26.627Z,82.98
2022-09-28T20:52:09.298Z,82.91
2022-09-28T20:56:00.090Z,84.07
2022-09-28T20:59:42.735Z,86.12
2022-09-28T21:03:25.880Z,86.37
2022-09-28T21:07:08.867Z,86.95
2022-09-28T21:10:52.667Z,87.91
2022-09-28T21:14:36.690Z,88.53
2022-09-28T21:18:20.120Z,89.12
2022-09-28T21:22:02.825Z,89.97
2022-09-28T21:25:46.501Z,90.42
2022-09-28T21:29:29.438Z,90.67
2022-09-28T21:33:13.456Z,91.07
2022-09-28T21:36:57.893Z,91.71
2022-09-28T21:40:41.034Z,92.47
2022-09-28T21:44:23.846Z,94.52
2022-09-28T21:48:06.586Z,96.22
2022-09-28T21:51:51.727Z,96.16
2022-09-28T21:55:34.403Z,95.47
2022-09-28T21:59:17.059Z,95.11
2022-09-28T22:02:59.973Z,95.27
2022-09-28T22:06:42.711Z,95.91
2022-09-28T22:10:26.777Z,96.72
2022-09-28T22:14:11.004Z,96.52
2022-09-28T22:17:53.763Z,96.06
2022-09-28T22:21:36.425Z,95.68
2022-09-28T22:25:19.288Z,96.93
2022-09-28T22:29:05.066Z,97.03
2022-09-28T22:32:48.131Z,97.74
2022-09-28T22:36:31.321Z,97.93
2022-09-28T22:40:14.513Z,98.06
2022-09-28T22:43:57.467Z,98.51
2022-09-28T22:47:41.517Z,97.23
2022-09-28T22:51:25.198Z,97.83
2022-09-28T22:55:08.507Z,98.09
2022-09-28T22:58:51.221Z,97.61
2022-09-28T23:02:33.998Z,97.85
2022-09-28T23:06:21.091Z,97.86
2022-09-28T23:10:03.883Z,97.96
2022-09-28T23:13:49.932Z,98.13
2022-09-28T23:17:42.670Z,98.10
2022-09-28T23:21:28.104Z,98.48
2022-09-28T23:25:11.108Z,98.94
2022-09-28T23:28:54.910Z,99.02
2022-09-28T23:32:46.533Z,98.56
2022-09-28T23:36:30.867Z,99.67
2022-09-28T23:40:13.632Z,100.00
2022-09-28T23:43:56.443Z,100.00
2022-09-28T23:47:51.716Z,98.60
2022-09-28T23:51:35.819Z,98.33
2022-09-28T23:55:21.145Z,97.98
2022-09-28T23:59:06.293Z,98.06
